Brenes, Spain
Current Conditions -  °F | °C
As of 4:00 PM on Saturday 20 Dec 2014 (Local Time) from LEMO Reporting Station
Clear Clear  
Wind Chill: 16°   Ceiling: Unl
Heat Index: 16°   Visibility: 6mi
Dew Point: 12°   Wind: 6mph
Humidity: 77%   Direction: 40°NE
Pressure: 30.39"   Gusts: NA
Location:  37.55°N, 5.87°W
Report Text: LEMO 201500Z 04005KT 010V080 CAVOK 16/12 Q1029 NOSIG
Loading
Personal Weather Stations






























Interactive Weather Map New forecast layout! Learn more

10-Day Weather Forecast

Advertisements
Track Severe Weather on mobile